sensor_id;sensor_type;location;lat;lon;timestamp;pressure;altitude;pressure_sealevel;temperature;humidity
38530;BME280;24301;54.332;48.386;2023-07-29T00:01:51;98139.19;;;26.33;51.33
38530;BME280;24301;54.332;48.386;2023-07-29T00:04:19;98141.75;;;26.25;51.31
38530;BME280;24301;54.332;48.386;2023-07-29T00:06:45;98145.25;;;26.25;51.47
38530;BME280;24301;54.332;48.386;2023-07-29T00:09:11;98135.94;;;26.20;51.44
38530;BME280;24301;54.332;48.386;2023-07-29T00:11:38;98139.34;;;26.22;51.31
38530;BME280;24301;54.332;48.386;2023-07-29T00:14:03;98144.31;;;26.17;52.29
38530;BME280;24301;54.332;48.386;2023-07-29T00:16:29;98141.41;;;26.08;51.89
38530;BME280;24301;54.332;48.386;2023-07-29T00:18:55;98132.63;;;26.06;51.89
38530;BME280;24301;54.332;48.386;2023-07-29T00:21:21;98128.94;;;26.07;51.93
38530;BME280;24301;54.332;48.386;2023-07-29T00:23:47;98128.13;;;26.07;51.96
38530;BME280;24301;54.332;48.386;2023-07-29T00:26:12;98133.06;;;26.11;51.51
38530;BME280;24301;54.332;48.386;2023-07-29T00:28:38;98131.06;;;26.14;51.01
38530;BME280;24301;54.332;48.386;2023-07-29T00:31:04;98140.63;;;26.18;51.06
38530;BME280;24301;54.332;48.386;2023-07-29T00:33:30;98130.94;;;26.15;51.62
38530;BME280;24301;54.332;48.386;2023-07-29T00:35:56;98124.97;;;26.11;51.38
38530;BME280;24301;54.332;48.386;2023-07-29T00:38:22;98121.28;;;26.13;51.00
38530;BME280;24301;54.332;48.386;2023-07-29T00:40:49;98120.31;;;26.14;51.11
38530;BME280;24301;54.332;48.386;2023-07-29T00:43:15;98113.97;;;26.15;50.65
38530;BME280;24301;54.332;48.386;2023-07-29T00:45:43;98106.72;;;26.15;50.79
38530;BME280;24301;54.332;48.386;2023-07-29T00:48:10;98115.91;;;26.13;50.57
38530;BME280;24301;54.332;48.386;2023-07-29T00:50:36;98113.38;;;26.11;51.47
38530;BME280;24301;54.332;48.386;2023-07-29T00:53:02;98111.09;;;26.06;51.78
38530;BME280;24301;54.332;48.386;2023-07-29T00:55:28;98111.81;;;25.99;52.57
38530;BME280;24301;54.332;48.386;2023-07-29T00:57:54;98119.75;;;25.90;52.98
38530;BME280;24301;54.332;48.386;2023-07-29T01:00:21;98110.41;;;25.85;53.23
38530;BME280;24301;54.332;48.386;2023-07-29T01:02:47;98116.75;;;25.83;53.10
38530;BME280;24301;54.332;48.386;2023-07-29T01:05:14;98124.13;;;25.81;53.62
38530;BME280;24301;54.332;48.386;2023-07-29T01:07:56;98111.66;;;25.80;53.52
38530;BME280;24301;54.332;48.386;2023-07-29T01:10:30;98116.22;;;25.80;53.84
38530;BME280;24301;54.332;48.386;2023-07-29T01:15:55;98095.81;;;25.77;53.57
38530;BME280;24301;54.332;48.386;2023-07-29T01:18:35;98104.31;;;25.82;52.59
38530;BME280;24301;54.332;48.386;2023-07-29T01:21:08;98114.66;;;25.87;53.07
38530;BME280;24301;54.332;48.386;2023-07-29T01:23:35;98110.84;;;25.90;53.21
38530;BME280;24301;54.332;48.386;2023-07-29T01:26:02;98101.34;;;25.95;53.32
38530;BME280;24301;54.332;48.386;2023-07-29T01:28:28;98098.94;;;26.02;53.35
38530;BME280;24301;54.332;48.386;2023-07-29T01:31:12;98097.66;;;26.06;53.81
38530;BME280;24301;54.332;48.386;2023-07-29T01:33:46;98113.50;;;26.09;53.91
38530;BME280;24301;54.332;48.386;2023-07-29T01:36:20;98117.63;;;26.14;54.18
38530;BME280;24301;54.332;48.386;2023-07-29T01:38:48;98112.84;;;26.17;53.93
38530;BME280;24301;54.332;48.386;2023-07-29T01:41:16;98100.94;;;26.20;54.20
38530;BME280;24301;54.332;48.386;2023-07-29T01:43:43;98095.00;;;26.26;53.76
38530;BME280;24301;54.332;48.386;2023-07-29T01:46:15;98094.97;;;26.46;53.29
38530;BME280;24301;54.332;48.386;2023-07-29T01:48:41;98092.81;;;26.49;52.48
38530;BME280;24301;54.332;48.386;2023-07-29T01:51:07;98092.22;;;26.65;51.83
38530;BME280;24301;54.332;48.386;2023-07-29T01:53:34;98076.31;;;26.72;51.16
38530;BME280;24301;54.332;48.386;2023-07-29T01:56:00;98090.31;;;26.95;50.22
38530;BME280;24301;54.332;48.386;2023-07-29T01:58:27;98080.19;;;27.07;50.26
38530;BME280;24301;54.332;48.386;2023-07-29T02:00:53;98096.44;;;27.16;50.45
38530;BME280;24301;54.332;48.386;2023-07-29T02:03:19;98078.56;;;27.15;50.58
38530;BME280;24301;54.332;48.386;2023-07-29T02:05:44;98096.38;;;27.25;50.05
38530;BME280;24301;54.332;48.386;2023-07-29T02:08:10;98086.69;;;27.33;50.25
38530;BME280;24301;54.332;48.386;2023-07-29T02:10:37;98079.69;;;27.40;49.55
38530;BME280;24301;54.332;48.386;2023-07-29T02:13:03;98086.69;;;27.61;49.30
38530;BME280;24301;54.332;48.386;2023-07-29T02:15:29;98098.97;;;27.73;48.55
38530;BME280;24301;54.332;48.386;2023-07-29T02:17:55;98088.94;;;27.83;48.32
38530;BME280;24301;54.332;48.386;2023-07-29T02:20:21;98085.38;;;28.01;47.78
38530;BME280;24301;54.332;48.386;2023-07-29T02:22:50;98067.88;;;28.23;47.22
38530;BME280;24301;54.332;48.386;2023-07-29T02:25:16;98069.06;;;28.47;46.69
38530;BME280;24301;54.332;48.386;2023-07-29T02:27:42;98081.66;;;28.65;45.62
38530;BME280;24301;54.332;48.386;2023-07-29T02:30:08;98078.84;;;28.75;45.50
38530;BME280;24301;54.332;48.386;2023-07-29T02:32:35;98067.53;;;29.06;44.93
38530;BME280;24301;54.332;48.386;2023-07-29T02:35:02;98067.41;;;29.16;44.41
38530;BME280;24301;54.332;48.386;2023-07-29T02:37:28;98067.22;;;29.09;43.99
38530;BME280;24301;54.332;48.386;2023-07-29T02:39:54;98060.53;;;29.30;43.79
38530;BME280;24301;54.332;48.386;2023-07-29T02:42:22;98070.31;;;29.31;43.49
38530;BME280;24301;54.332;48.386;2023-07-29T02:44:48;98074.13;;;29.46;43.25
38530;BME280;24301;54.332;48.386;2023-07-29T02:47:15;98073.84;;;29.74;42.49
38530;BME280;24301;54.332;48.386;2023-07-29T02:49:40;98070.84;;;30.02;42.36
38530;BME280;24301;54.332;48.386;2023-07-29T02:52:06;98066.09;;;30.13;41.66
38530;BME280;24301;54.332;48.386;2023-07-29T02:54:32;98070.97;;;30.50;41.18
38530;BME280;24301;54.332;48.386;2023-07-29T02:56:58;98057.09;;;30.62;40.20
38530;BME280;24301;54.332;48.386;2023-07-29T02:59:24;98061.28;;;30.81;39.97
38530;BME280;24301;54.332;48.386;2023-07-29T03:01:50;98053.66;;;31.16;39.61
38530;BME280;24301;54.332;48.386;2023-07-29T03:04:41;98054.84;;;31.53;38.28
38530;BME280;24301;54.332;48.386;2023-07-29T03:07:33;98044.16;;;31.84;37.95
38530;BME280;24301;54.332;48.386;2023-07-29T03:10:27;98043.50;;;32.20;38.01
38530;BME280;24301;54.332;48.386;2023-07-29T03:13:26;98044.16;;;32.75;36.91
38530;BME280;24301;54.332;48.386;2023-07-29T03:16:15;98039.84;;;32.81;35.97
38530;BME280;24301;54.332;48.386;2023-07-29T03:19:10;98039.97;;;32.88;36.04
38530;BME280;24301;54.332;48.386;2023-07-29T03:21:36;98051.69;;;32.88;36.01
38530;BME280;24301;54.332;48.386;2023-07-29T03:24:03;98054.69;;;32.93;36.39
38530;BME280;24301;54.332;48.386;2023-07-29T03:26:32;98061.66;;;33.48;36.11
38530;BME280;24301;54.332;48.386;2023-07-29T03:29:10;98055.84;;;34.16;35.58
38530;BME280;24301;54.332;48.386;2023-07-29T03:32:10;98060.31;;;34.81;34.52
38530;BME280;24301;54.332;48.386;2023-07-29T03:37:05;98042.88;;;35.17;33.29
38530;BME280;24301;54.332;48.386;2023-07-29T03:39:32;98053.47;;;35.47;33.53
38530;BME280;24301;54.332;48.386;2023-07-29T03:41:58;98050.34;;;35.50;32.94
38530;BME280;24301;54.332;48.386;2023-07-29T03:44:24;98068.34;;;36.07;32.10
38530;BME280;24301;54.332;48.386;2023-07-29T03:46:49;98057.44;;;36.27;31.62
38530;BME280;24301;54.332;48.386;2023-07-29T03:49:15;98070.88;;;36.62;31.29
38530;BME280;24301;54.332;48.386;2023-07-29T03:51:41;98064.78;;;36.67;30.00
38530;BME280;24301;54.332;48.386;2023-07-29T03:54:08;98062.88;;;37.33;29.70
38530;BME280;24301;54.332;48.386;2023-07-29T03:56:33;98070.63;;;37.43;29.52
38530;BME280;24301;54.332;48.386;2023-07-29T03:59:05;98073.09;;;37.58;29.69
38530;BME280;24301;54.332;48.386;2023-07-29T04:01:34;98071.69;;;37.81;28.94
38530;BME280;24301;54.332;48.386;2023-07-29T04:04:00;98061.97;;;37.85;29.12
38530;BME280;24301;54.332;48.386;2023-07-29T04:06:26;98058.06;;;38.06;28.62
38530;BME280;24301;54.332;48.386;2023-07-29T04:08:52;98058.66;;;38.34;28.50
38530;BME280;24301;54.332;48.386;2023-07-29T04:11:18;98063.78;;;38.56;28.08
38530;BME280;24301;54.332;48.386;2023-07-29T04:13:47;98067.00;;;38.71;27.91
38530;BME280;24301;54.332;48.386;2023-07-29T04:16:12;98066.03;;;39.03;27.64
38530;BME280;24301;54.332;48.386;2023-07-29T04:18:38;98066.94;;;38.78;27.61
38530;BME280;24301;54.332;48.386;2023-07-29T04:21:04;98064.81;;;38.99;27.26
38530;BME280;24301;54.332;48.386;2023-07-29T04:23:30;98065.56;;;39.24;27.32
38530;BME280;24301;54.332;48.386;2023-07-29T04:25:56;98077.28;;;39.50;27.42
38530;BME280;24301;54.332;48.386;2023-07-29T04:28:37;98079.75;;;40.01;27.25
38530;BME280;24301;54.332;48.386;2023-07-29T04:31:16;98063.28;;;40.13;27.17
38530;BME280;24301;54.332;48.386;2023-07-29T04:34:07;98076.97;;;40.44;26.71
38530;BME280;24301;54.332;48.386;2023-07-29T04:36:35;98069.31;;;40.34;26.46
38530;BME280;24301;54.332;48.386;2023-07-29T04:39:01;98072.53;;;40.43;26.48
38530;BME280;24301;54.332;48.386;2023-07-29T04:41:26;98069.31;;;40.58;26.11
38530;BME280;24301;54.332;48.386;2023-07-29T04:43:52;98065.16;;;40.55;25.82
38530;BME280;24301;54.332;48.386;2023-07-29T04:46:18;98056.72;;;40.98;25.38
38530;BME280;24301;54.332;48.386;2023-07-29T04:48:47;98061.56;;;40.78;25.29
38530;BME280;24301;54.332;48.386;2023-07-29T04:51:13;98061.97;;;41.23;25.02
38530;BME280;24301;54.332;48.386;2023-07-29T04:53:40;98067.19;;;41.94;24.37
38530;BME280;24301;54.332;48.386;2023-07-29T04:56:05;98055.03;;;42.07;24.33
38530;BME280;24301;54.332;48.386;2023-07-29T04:58:31;98057.94;;;42.18;23.91
38530;BME280;24301;54.332;48.386;2023-07-29T05:01:00;98062.28;;;42.31;24.20
38530;BME280;24301;54.332;48.386;2023-07-29T05:03:26;98052.56;;;42.62;23.78
38530;BME280;24301;54.332;48.386;2023-07-29T05:05:52;98063.53;;;42.57;23.26
38530;BME280;24301;54.332;48.386;2023-07-29T05:08:20;98052.47;;;42.74;23.39
38530;BME280;24301;54.332;48.386;2023-07-29T05:10:50;98057.41;;;42.38;23.36
38530;BME280;24301;54.332;48.386;2023-07-29T05:13:16;98069.59;;;42.42;23.58
38530;BME280;24301;54.332;48.386;2023-07-29T05:15:43;98061.63;;;42.24;24.27
38530;BME280;24301;54.332;48.386;2023-07-29T05:18:08;98062.94;;;42.38;24.18
38530;BME280;24301;54.332;48.386;2023-07-29T05:20:34;98060.72;;;42.91;22.98
38530;BME280;24301;54.332;48.386;2023-07-29T05:23:03;98055.22;;;43.19;23.02
38530;BME280;24301;54.332;48.386;2023-07-29T05:25:29;98051.38;;;43.20;23.11
38530;BME280;24301;54.332;48.386;2023-07-29T05:27:55;98042.59;;;43.45;22.68
38530;BME280;24301;54.332;48.386;2023-07-29T05:30:21;98064.16;;;44.03;22.73
38530;BME280;24301;54.332;48.386;2023-07-29T05:32:46;98062.84;;;44.44;22.22
38530;BME280;24301;54.332;48.386;2023-07-29T05:35:12;98066.06;;;44.68;22.26
38530;BME280;24301;54.332;48.386;2023-07-29T05:37:38;98066.94;;;44.74;21.63
38530;BME280;24301;54.332;48.386;2023-07-29T05:40:08;98057.75;;;44.68;21.56
38530;BME280;24301;54.332;48.386;2023-07-29T05:42:34;98056.28;;;44.98;21.09
38530;BME280;24301;54.332;48.386;2023-07-29T05:45:01;98065.44;;;45.78;21.04
38530;BME280;24301;54.332;48.386;2023-07-29T05:47:28;98056.09;;;45.20;20.75
38530;BME280;24301;54.332;48.386;2023-07-29T05:49:54;98057.44;;;45.18;21.13
38530;BME280;24301;54.332;48.386;2023-07-29T05:52:20;98061.16;;;45.39;20.95
38530;BME280;24301;54.332;48.386;2023-07-29T05:54:46;98055.09;;;45.58;20.54
38530;BME280;24301;54.332;48.386;2023-07-29T05:57:12;98061.00;;;46.08;20.18
38530;BME280;24301;54.332;48.386;2023-07-29T05:59:38;98062.38;;;46.62;19.44
38530;BME280;24301;54.332;48.386;2023-07-29T06:02:04;98056.94;;;47.13;19.66
38530;BME280;24301;54.332;48.386;2023-07-29T06:04:30;98067.78;;;47.14;18.98
38530;BME280;24301;54.332;48.386;2023-07-29T06:06:56;98064.34;;;46.52;19.37
38530;BME280;24301;54.332;48.386;2023-07-29T06:09:22;98069.31;;;46.39;19.47
38530;BME280;24301;54.332;48.386;2023-07-29T06:11:48;98062.34;;;46.68;19.58
38530;BME280;24301;54.332;48.386;2023-07-29T06:14:14;98058.84;;;47.28;19.19
38530;BME280;24301;54.332;48.386;2023-07-29T06:16:40;98058.06;;;47.62;18.67
38530;BME280;24301;54.332;48.386;2023-07-29T06:19:06;98066.56;;;47.86;18.67
38530;BME280;24301;54.332;48.386;2023-07-29T06:21:34;98077.53;;;47.67;18.57
38530;BME280;24301;54.332;48.386;2023-07-29T06:24:01;98074.00;;;47.51;18.21
38530;BME280;24301;54.332;48.386;2023-07-29T06:26:27;98070.31;;;47.05;18.65
38530;BME280;24301;54.332;48.386;2023-07-29T06:28:53;98074.31;;;46.06;18.89
38530;BME280;24301;54.332;48.386;2023-07-29T06:31:19;98061.75;;;45.57;18.86
38530;BME280;24301;54.332;48.386;2023-07-29T06:33:45;98067.53;;;45.34;19.43
38530;BME280;24301;54.332;48.386;2023-07-29T06:36:11;98065.06;;;45.54;19.13
38530;BME280;24301;54.332;48.386;2023-07-29T06:38:37;98050.69;;;45.62;19.77
38530;BME280;24301;54.332;48.386;2023-07-29T06:41:06;98047.69;;;46.10;19.62
38530;BME280;24301;54.332;48.386;2023-07-29T06:43:32;98060.63;;;46.87;18.65
38530;BME280;24301;54.332;48.386;2023-07-29T06:45:59;98056.31;;;47.31;17.97
38530;BME280;24301;54.332;48.386;2023-07-29T06:48:25;98055.97;;;47.43;18.15
38530;BME280;24301;54.332;48.386;2023-07-29T06:50:51;98053.66;;;47.66;17.84
38530;BME280;24301;54.332;48.386;2023-07-29T06:53:17;98041.69;;;47.66;17.17
38530;BME280;24301;54.332;48.386;2023-07-29T06:55:44;98060.06;;;47.56;17.46
38530;BME280;24301;54.332;48.386;2023-07-29T06:58:10;98049.50;;;47.98;16.86
38530;BME280;24301;54.332;48.386;2023-07-29T07:00:36;98054.13;;;47.73;17.59
38530;BME280;24301;54.332;48.386;2023-07-29T07:03:02;98047.03;;;47.91;16.92
38530;BME280;24301;54.332;48.386;2023-07-29T07:05:28;98051.91;;;47.75;17.12
38530;BME280;24301;54.332;48.386;2023-07-29T07:07:53;98045.78;;;48.13;17.36
38530;BME280;24301;54.332;48.386;2023-07-29T07:10:19;98047.47;;;48.44;16.60
38530;BME280;24301;54.332;48.386;2023-07-29T07:12:45;98039.06;;;48.49;16.44
38530;BME280;24301;54.332;48.386;2023-07-29T07:15:11;98048.31;;;48.39;16.26
38530;BME280;24301;54.332;48.386;2023-07-29T07:17:36;98033.56;;;48.44;16.53
38530;BME280;24301;54.332;48.386;2023-07-29T07:20:03;98039.56;;;48.75;16.21
38530;BME280;24301;54.332;48.386;2023-07-29T07:22:29;98043.75;;;49.02;15.97
38530;BME280;24301;54.332;48.386;2023-07-29T07:24:55;98038.81;;;48.94;16.46
38530;BME280;24301;54.332;48.386;2023-07-29T07:27:20;98031.75;;;49.45;16.24
38530;BME280;24301;54.332;48.386;2023-07-29T07:29:46;98037.47;;;49.35;16.06
38530;BME280;24301;54.332;48.386;2023-07-29T07:32:12;98030.97;;;48.77;16.10
38530;BME280;24301;54.332;48.386;2023-07-29T07:34:38;98025.50;;;47.28;17.21
38530;BME280;24301;54.332;48.386;2023-07-29T07:37:04;98011.94;;;45.88;18.76
38530;BME280;24301;54.332;48.386;2023-07-29T07:39:31;98024.13;;;46.18;18.65
38530;BME280;24301;54.332;48.386;2023-07-29T07:41:57;98018.00;;;46.37;18.64
38530;BME280;24301;54.332;48.386;2023-07-29T07:44:23;98014.13;;;46.06;18.41
38530;BME280;24301;54.332;48.386;2023-07-29T07:46:52;98007.50;;;45.92;18.77
38530;BME280;24301;54.332;48.386;2023-07-29T07:49:19;97992.94;;;45.12;18.88
38530;BME280;24301;54.332;48.386;2023-07-29T07:51:44;98008.78;;;45.38;17.99
38530;BME280;24301;54.332;48.386;2023-07-29T07:54:10;98000.78;;;45.46;18.42
38530;BME280;24301;54.332;48.386;2023-07-29T07:56:36;97997.75;;;44.84;18.47
38530;BME280;24301;54.332;48.386;2023-07-29T07:59:02;97992.16;;;44.63;18.81
38530;BME280;24301;54.332;48.386;2023-07-29T08:01:28;97994.00;;;44.10;18.84
38530;BME280;24301;54.332;48.386;2023-07-29T08:03:59;97985.56;;;44.75;19.26
38530;BME280;24301;54.332;48.386;2023-07-29T08:06:28;97989.44;;;44.79;18.91
38530;BME280;24301;54.332;48.386;2023-07-29T08:08:53;97986.88;;;42.59;20.01
38530;BME280;24301;54.332;48.386;2023-07-29T08:11:20;98002.69;;;41.49;21.07
38530;BME280;24301;54.332;48.386;2023-07-29T08:13:46;97963.41;;;40.31;22.02
38530;BME280;24301;54.332;48.386;2023-07-29T08:16:12;97971.06;;;39.32;22.94
38530;BME280;24301;54.332;48.386;2023-07-29T08:18:38;97971.91;;;38.21;24.08
38530;BME280;24301;54.332;48.386;2023-07-29T08:21:04;97985.31;;;37.53;25.16
38530;BME280;24301;54.332;48.386;2023-07-29T08:23:55;97975.34;;;36.67;26.20
38530;BME280;24301;54.332;48.386;2023-07-29T08:26:21;97960.72;;;35.88;27.01
38530;BME280;24301;54.332;48.386;2023-07-29T08:28:48;97963.25;;;35.56;27.19
38530;BME280;24301;54.332;48.386;2023-07-29T08:31:14;97944.59;;;34.97;28.51
38530;BME280;24301;54.332;48.386;2023-07-29T08:33:43;97971.16;;;34.46;27.92
38530;BME280;24301;54.332;48.386;2023-07-29T08:36:09;97944.19;;;34.23;28.84
38530;BME280;24301;54.332;48.386;2023-07-29T08:38:35;97965.50;;;34.13;29.10
38530;BME280;24301;54.332;48.386;2023-07-29T08:43:52;97969.44;;;34.03;28.63
38530;BME280;24301;54.332;48.386;2023-07-29T08:46:22;97939.50;;;34.10;28.38
38530;BME280;24301;54.332;48.386;2023-07-29T08:48:48;97982.81;;;33.76;28.94
38530;BME280;24301;54.332;48.386;2023-07-29T08:51:15;97972.41;;;33.65;28.85
38530;BME280;24301;54.332;48.386;2023-07-29T08:53:42;97950.47;;;33.66;29.02
38530;BME280;24301;54.332;48.386;2023-07-29T08:56:09;97967.63;;;33.67;29.07
38530;BME280;24301;54.332;48.386;2023-07-29T08:58:35;97934.19;;;33.73;29.04
38530;BME280;24301;54.332;48.386;2023-07-29T09:01:04;97942.38;;;33.80;28.74
38530;BME280;24301;54.332;48.386;2023-07-29T09:03:31;97933.81;;;33.83;28.51
38530;BME280;24301;54.332;48.386;2023-07-29T09:05:58;97928.66;;;33.88;28.75
38530;BME280;24301;54.332;48.386;2023-07-29T09:08:28;97932.66;;;33.92;28.38
38530;BME280;24301;54.332;48.386;2023-07-29T09:10:55;97932.53;;;34.01;28.39
38530;BME280;24301;54.332;48.386;2023-07-29T09:13:24;97911.44;;;34.09;28.44
38530;BME280;24301;54.332;48.386;2023-07-29T09:15:54;97918.91;;;34.01;28.83
38530;BME280;24301;54.332;48.386;2023-07-29T09:18:21;97934.03;;;34.03;28.85
38530;BME280;24301;54.332;48.386;2023-07-29T09:20:49;97940.19;;;33.90;28.31
38530;BME280;24301;54.332;48.386;2023-07-29T09:23:16;97936.81;;;33.88;29.09
38530;BME280;24301;54.332;48.386;2023-07-29T09:25:42;97954.25;;;33.72;28.23
38530;BME280;24301;54.332;48.386;2023-07-29T09:28:15;97910.06;;;33.70;28.53
38530;BME280;24301;54.332;48.386;2023-07-29T09:30:44;97920.91;;;33.63;28.29
38530;BME280;24301;54.332;48.386;2023-07-29T09:33:10;97918.63;;;33.67;28.29
38530;BME280;24301;54.332;48.386;2023-07-29T09:35:37;97904.63;;;33.70;28.63
38530;BME280;24301;54.332;48.386;2023-07-29T09:38:06;97904.50;;;33.78;28.43
38530;BME280;24301;54.332;48.386;2023-07-29T09:40:37;97901.94;;;33.77;28.34
38530;BME280;24301;54.332;48.386;2023-07-29T09:43:04;97886.06;;;33.80;28.27
38530;BME280;24301;54.332;48.386;2023-07-29T09:45:30;97910.81;;;33.86;28.40
38530;BME280;24301;54.332;48.386;2023-07-29T09:47:58;97890.03;;;34.06;28.13
38530;BME280;24301;54.332;48.386;2023-07-29T09:50:25;97872.72;;;34.21;27.91
38530;BME280;24301;54.332;48.386;2023-07-29T09:52:52;97899.31;;;34.19;26.99
38530;BME280;24301;54.332;48.386;2023-07-29T09:55:19;97889.91;;;33.93;27.50
38530;BME280;24301;54.332;48.386;2023-07-29T09:57:46;97893.88;;;33.90;28.28
38530;BME280;24301;54.332;48.386;2023-07-29T10:00:13;97868.59;;;33.96;28.00
38530;BME280;24301;54.332;48.386;2023-07-29T10:02:40;97897.16;;;34.07;28.18
38530;BME280;24301;54.332;48.386;2023-07-29T10:09:21;97857.22;;;34.21;27.43
38530;BME280;24301;54.332;48.386;2023-07-29T10:12:28;97830.53;;;34.10;27.46
38530;BME280;24301;54.332;48.386;2023-07-29T10:15:29;97863.22;;;34.10;27.92
38530;BME280;24301;54.332;48.386;2023-07-29T10:17:59;97851.09;;;34.13;27.93
38530;BME280;24301;54.332;48.386;2023-07-29T10:20:43;97858.00;;;34.08;27.95
38530;BME280;24301;54.332;48.386;2023-07-29T10:23:09;97837.13;;;33.94;27.74
38530;BME280;24301;54.332;48.386;2023-07-29T10:26:24;97854.41;;;34.08;28.19
38530;BME280;24301;54.332;48.386;2023-07-29T10:29:20;97840.84;;;34.15;28.16
38530;BME280;24301;54.332;48.386;2023-07-29T10:32:44;97823.59;;;34.01;27.47
38530;BME280;24301;54.332;48.386;2023-07-29T10:35:42;97836.50;;;34.27;27.40
38530;BME280;24301;54.332;48.386;2023-07-29T10:38:08;97793.63;;;34.01;27.60
38530;BME280;24301;54.332;48.386;2023-07-29T10:41:05;97821.84;;;34.28;27.68
38530;BME280;24301;54.332;48.386;2023-07-29T10:43:36;97830.25;;;34.33;27.61
38530;BME280;24301;54.332;48.386;2023-07-29T10:46:18;97802.94;;;34.20;27.29
38530;BME280;24301;54.332;48.386;2023-07-29T10:48:53;97820.94;;;34.21;26.62
38530;BME280;24301;54.332;48.386;2023-07-29T10:51:34;97802.94;;;34.20;26.84
38530;BME280;24301;54.332;48.386;2023-07-29T10:54:13;97794.53;;;34.15;27.07
38530;BME280;24301;54.332;48.386;2023-07-29T11:00:07;97816.69;;;33.98;27.07
38530;BME280;24301;54.332;48.386;2023-07-29T11:03:05;97794.47;;;34.01;26.86
38530;BME280;24301;54.332;48.386;2023-07-29T11:08:44;97761.41;;;34.04;26.93
38530;BME280;24301;54.332;48.386;2023-07-29T11:11:12;97775.28;;;34.23;26.76
38530;BME280;24301;54.332;48.386;2023-07-29T11:14:03;97755.22;;;34.37;26.72
38530;BME280;24301;54.332;48.386;2023-07-29T11:16:36;97742.19;;;34.26;26.25
38530;BME280;24301;54.332;48.386;2023-07-29T11:19:28;97752.56;;;34.64;26.54
38530;BME280;24301;54.332;48.386;2023-07-29T11:21:57;97721.34;;;34.60;26.13
38530;BME280;24301;54.332;48.386;2023-07-29T11:24:30;97720.22;;;34.48;26.13
38530;BME280;24301;54.332;48.386;2023-07-29T11:27:13;97732.38;;;34.45;26.47
38530;BME280;24301;54.332;48.386;2023-07-29T11:29:46;97723.81;;;34.48;26.27
38530;BME280;24301;54.332;48.386;2023-07-29T11:32:17;97720.91;;;34.50;26.69
38530;BME280;24301;54.332;48.386;2023-07-29T11:35:16;97747.88;;;34.31;27.38
38530;BME280;24301;54.332;48.386;2023-07-29T11:41:33;97707.25;;;33.88;28.90
38530;BME280;24301;54.332;48.386;2023-07-29T11:43:58;97708.03;;;33.75;28.64
38530;BME280;24301;54.332;48.386;2023-07-29T11:46:53;97690.44;;;33.77;29.55
38530;BME280;24301;54.332;48.386;2023-07-29T11:49:48;97692.13;;;33.78;29.58
38530;BME280;24301;54.332;48.386;2023-07-29T11:52:31;97693.81;;;33.79;30.19
38530;BME280;24301;54.332;48.386;2023-07-29T11:55:41;97680.75;;;33.68;29.96
38530;BME280;24301;54.332;48.386;2023-07-29T11:58:34;97656.50;;;33.73;29.79
38530;BME280;24301;54.332;48.386;2023-07-29T12:01:22;97661.97;;;33.73;29.65
38530;BME280;24301;54.332;48.386;2023-07-29T12:04:25;97639.59;;;33.91;28.94
38530;BME280;24301;54.332;48.386;2023-07-29T12:07:33;97654.47;;;33.89;28.46
38530;BME280;24301;54.332;48.386;2023-07-29T12:10:41;97660.19;;;34.01;28.24
38530;BME280;24301;54.332;48.386;2023-07-29T12:13:16;97659.16;;;34.08;28.19
38530;BME280;24301;54.332;48.386;2023-07-29T12:16:15;97670.91;;;34.16;28.07
38530;BME280;24301;54.332;48.386;2023-07-29T12:19:17;97622.28;;;33.99;27.54
38530;BME280;24301;54.332;48.386;2023-07-29T12:21:53;97644.53;;;34.16;26.95
38530;BME280;24301;54.332;48.386;2023-07-29T12:24:48;97651.66;;;34.24;26.55
38530;BME280;24301;54.332;48.386;2023-07-29T12:27:34;97655.44;;;34.36;26.99
38530;BME280;24301;54.332;48.386;2023-07-29T12:30:01;97656.91;;;34.32;26.97
38530;BME280;24301;54.332;48.386;2023-07-29T12:32:57;97655.88;;;34.40;27.05
38530;BME280;24301;54.332;48.386;2023-07-29T12:35:35;97641.59;;;34.45;26.58
38530;BME280;24301;54.332;48.386;2023-07-29T12:38:37;97650.44;;;34.53;27.31
38530;BME280;24301;54.332;48.386;2023-07-29T12:41:06;97633.22;;;34.39;27.23
38530;BME280;24301;54.332;48.386;2023-07-29T12:44:04;97675.13;;;34.25;27.21
38530;BME280;24301;54.332;48.386;2023-07-29T12:46:54;97666.47;;;34.01;27.97
38530;BME280;24301;54.332;48.386;2023-07-29T12:49:35;97664.06;;;33.78;28.04
38530;BME280;24301;54.332;48.386;2023-07-29T12:52:31;97654.84;;;33.79;27.32
38530;BME280;24301;54.332;48.386;2023-07-29T12:55:33;97649.13;;;33.67;27.92
38530;BME280;24301;54.332;48.386;2023-07-29T12:58:23;97638.84;;;33.56;28.68
38530;BME280;24301;54.332;48.386;2023-07-29T13:01:28;97634.19;;;33.43;28.98
38530;BME280;24301;54.332;48.386;2023-07-29T13:04:22;97630.53;;;33.29;29.15
38530;BME280;24301;54.332;48.386;2023-07-29T13:07:06;97747.50;;;32.42;32.24
38530;BME280;24301;54.332;48.386;2023-07-29T13:12:58;97740.09;;;30.30;33.41
38530;BME280;24301;54.332;48.386;2023-07-29T13:15:24;97830.34;;;29.41;35.97
38530;BME280;24301;54.332;48.386;2023-07-29T13:21:43;97908.13;;;25.71;51.56
38530;BME280;24301;54.332;48.386;2023-07-29T13:24:15;97842.09;;;25.00;55.66
38530;BME280;24301;54.332;48.386;2023-07-29T13:26:45;97851.63;;;24.63;57.29
38530;BME280;24301;54.332;48.386;2023-07-29T13:29:11;97847.50;;;24.49;56.37
38530;BME280;24301;54.332;48.386;2023-07-29T13:31:37;97834.69;;;24.52;55.53
38530;BME280;24301;54.332;48.386;2023-07-29T13:34:02;97844.00;;;24.58;55.16
38530;BME280;24301;54.332;48.386;2023-07-29T13:36:28;97851.78;;;24.71;53.80
38530;BME280;24301;54.332;48.386;2023-07-29T13:38:54;97875.00;;;24.82;53.80
38530;BME280;24301;54.332;48.386;2023-07-29T13:41:20;97851.00;;;24.90;53.43
38530;BME280;24301;54.332;48.386;2023-07-29T13:43:46;97852.97;;;24.98;51.59